Date,TemperatureHighF,TemperatureAvgF,TemperatureLowF,DewpointHighF,DewpointAvgF,DewpointLowF,HumidityHigh,HumidityAvg,HumidityLow,PressureMaxIn,PressureMinIn,WindSpeedMaxMPH,WindSpeedAvgMPH,GustSpeedMaxMPH,PrecipitationSumIn
2013-1-1,77.9,65.6,54.0,64.2,58.4,53.1,99,80,55,30.24,30.05,14,2,15,1.20
2013-1-2,75.6,68.1,63.9,70.0,66.2,62.1,99,94,82,30.09,30.00,12,3,12,0.96
2013-1-3,76.1,65.4,59.4,71.4,64.0,59.0,99,96,71,30.19,30.04,7,2,7,0.00
2013-1-4,61.2,58.7,55.6,60.6,58.1,55.2,99,98,90,30.31,30.17,4,2,4,0.13
2013-1-5,74.3,63.5,56.3,62.2,58.6,53.1,99,85,64,30.33,30.20,9,2,9,0.19
2013-1-6,79.3,67.5,61.3,70.2,64.7,60.4,99,91,72,30.23,30.09,8,2,8,0.04
2013-1-7,67.3,63.2,60.1,64.9,60.5,55.8,99,91,75,30.23,30.12,11,3,11,0.05
2013-1-8,84.4,71.7,61.7,70.9,65.5,61.0,99,83,56,30.24,30.12,8,2,8,0.00
2013-1-9,86.9,75.8,68.7,73.6,69.0,66.0,99,81,53,30.30,30.17,10,2,10,0.00
2013-1-10,84.7,74.6,68.2,71.6,67.5,63.5,99,80,51,30.30,30.21,13,3,13,0.30
2013-1-11,82.2,72.1,65.7,70.5,65.3,63.1,97,81,56,30.27,30.14,11,2,11,0.28
2013-1-12,82.8,72.2,66.0,69.8,67.3,64.8,97,85,60,30.19,30.08,10,2,11,0.80
2013-1-13,80.8,72.0,66.7,69.6,66.3,64.9,95,83,62,30.18,30.06,10,2,10,0.53
2013-1-14,80.8,70.9,63.9,67.5,63.1,59.0,97,78,49,30.19,30.12,11,2,11,0.18
2013-1-15,80.4,69.8,61.5,68.9,64.8,60.3,99,85,61,30.16,30.06,14,2,14,0.31
2013-1-16,80.6,70.6,63.7,69.8,65.9,62.4,99,86,56,30.12,30.01,11,2,12,0.25
2013-1-17,71.2,64.2,54.3,70.0,60.1,45.3,99,87,63,30.19,30.00,17,4,17,0.12
2013-1-18,62.8,54.6,42.8,55.0,46.7,36.1,81,75,62,30.36,30.18,9,3,9,0.00
2013-1-19,75.9,63.8,54.3,61.0,55.2,48.4,87,74,57,30.30,30.14,8,3,14,0.00
2013-1-20,77.7,66.3,60.3,63.9,60.0,55.8,94,81,60,30.21,30.05,6,2,6,0.00
2013-1-21,74.7,65.5,59.5,63.3,57.8,52.3,88,76,64,30.13,30.04,9,2,9,0.00
2013-1-22,68.0,59.8,50.9,52.7,41.2,25.3,75,53,23,30.32,30.11,5,2,5,0.00
2013-1-23,69.8,57.3,48.6,47.3,40.3,32.7,86,56,29,30.40,30.30,6,2,6,0.00
2013-1-24,72.3,58.2,47.7,55.2,49.7,44.1,96,76,37,30.38,30.29,6,1,6,0.00
2013-1-25,74.5,60.5,51.3,62.4,53.4,48.4,99,81,40,30.35,30.22,9,2,9,0.00
2013-1-26,74.7,62.1,51.6,62.1,56.3,51.3,99,84,55,30.31,30.20,6,1,7,0.00
2013-1-27,80.4,66.1,55.0,65.3,56.8,53.2,99,76,41,30.33,30.22,8,2,8,0.00
2013-1-28,81.9,70.7,62.4,66.6,62.5,58.1,97,77,50,30.34,30.22,8,2,8,0.00
2013-1-29,82.4,71.0,63.0,69.6,65.8,61.5,99,85,57,30.25,30.09,15,3,15,0.00
2013-1-30,77.9,72.2,67.8,68.7,67.2,64.6,96,85,71,30.11,29.92,25,7,25,0.00
2013-1-31,69.8,57.8,49.3,68.0,46.4,32.9,99,68,38,30.28,29.93,20,3,20,0.72
2013-2-1,68.7,55.9,46.8,45.1,37.2,25.2,81,53,20,30.40,30.26,6,2,6,0.46
2013-2-2,72.3,57.9,48.4,48.4,43.4,30.9,84,61,23,30.35,30.19,9,2,9,0.00
2013-2-3,72.0,57.0,45.5,56.3,49.7,43.2,98,78,54,30.25,30.12,9,1,9,0.00
2013-2-4,70.5,56.4,46.2,56.5,44.5,28.2,98,69,21,30.19,30.08,11,2,11,0.00
2013-2-5,75.4,61.5,48.4,57.4,51.7,45.0,92,73,44,30.12,30.04,11,2,11,0.00
2013-2-6,77.9,67.8,59.7,65.8,60.6,56.3,93,79,52,30.13,30.04,10,2,11,0.00
2013-2-7,79.3,69.1,63.1,68.4,64.9,61.2,98,87,61,30.08,29.83,35,6,35,1.81
2013-2-8,76.1,66.7,58.3,67.5,62.4,56.5,99,87,65,30.11,29.92,14,3,14,0.24
2013-2-9,79.0,65.0,55.9,58.8,56.4,51.8,99,77,39,30.22,30.10,8,2,8,0.19
2013-2-10,83.7,69.9,62.1,64.8,60.9,56.5,89,74,48,30.26,30.14,14,4,15,0.20
2013-2-11,79.2,70.5,64.6,68.2,65.2,61.3,96,84,64,30.21,30.10,18,4,18,0.00
2013-2-12,78.4,71.4,67.6,71.8,69.2,67.1,99,93,78,30.12,29.96,21,6,22,0.00
2013-2-13,75.6,68.8,59.5,72.5,67.7,57.2,99,96,89,30.02,29.87,18,7,19,0.17
2013-2-14,64.4,61.1,59.0,62.6,60.0,58.1,99,96,88,30.09,29.95,6,1,6,0.41
2013-2-15,67.3,59.7,55.8,59.5,55.5,50.2,99,87,66,30.12,30.00,8,2,8,0.08
2013-2-16,70.3,58.3,51.4,55.6,47.6,34.9,93,69,46,30.18,29.99,17,-13,17,0.00
2013-2-17,54.1,48.1,41.5,37.4,27.1,15.8,69,45,28,30.39,30.18,11,3,11,1.49
2013-2-18,71.8,53.2,38.7,50.4,39.0,22.8,84,62,27,30.40,30.23,14,2,14,0.00
2013-2-19,74.3,64.5,53.2,64.4,57.5,48.4,98,79,58,30.25,30.11,17,4,17,0.00
2013-2-20,76.5,66.2,59.9,66.4,61.7,55.4,99,86,66,30.16,30.04,7,2,8,0.01
2013-2-21,80.6,68.7,59.5,67.6,63.0,55.9,97,83,63,30.14,30.01,11,2,11,0.00
2013-2-22,79.9,71.2,63.9,71.6,67.6,63.0,99,89,72,30.09,30.01,16,4,17,0.00
2013-2-23,75.2,71.0,68.0,72.0,69.8,67.6,99,96,88,30.03,29.92,15,5,15,0.00
2013-2-24,76.3,69.9,67.6,71.4,68.9,67.3,99,97,83,29.99,29.89,11,3,12,0.19
2013-2-25,80.1,73.5,67.8,73.4,70.6,67.5,99,91,74,29.92,29.78,15,4,15,0.00
2013-2-26,74.3,71.3,67.8,72.5,68.1,62.6,98,90,79,29.92,29.71,25,7,25,0.50
2013-2-27,72.7,65.3,58.6,63.5,57.4,53.1,92,76,56,30.02,29.90,10,2,10,0.79
2013-2-28,74.3,63.9,56.3,57.7,53.7,48.2,90,71,52,30.04,29.94,14,3,14,0.18
2013-3-1,64.0,58.4,53.8,49.5,44.9,38.5,75,61,51,30.08,29.96,11,3,11,0.00
2013-3-2,61.3,55.0,47.8,45.3,41.0,36.7,85,60,47,30.13,30.02,13,3,14,0.21
2013-3-3,56.1,49.3,43.7,40.1,36.6,31.5,70,61,53,30.21,30.03,17,3,17,0.12
2013-3-4,63.9,52.6,41.7,42.3,38.2,30.9,86,59,38,30.28,30.17,14,2,14,0.02
2013-3-5,72.1,59.3,43.5,64.0,53.3,41.2,96,82,62,30.22,30.07,13,4,13,0.00
2013-3-6,66.4,60.1,54.1,65.3,47.7,38.1,98,65,42,30.19,30.01,14,5,15,0.01
2013-3-7,63.7,53.2,45.1,46.2,39.0,32.4,92,61,32,30.27,30.17,11,2,11,0.00
2013-3-8,72.1,57.7,45.3,51.6,45.7,37.8,99,70,32,30.28,30.17,9,2,10,0.00
2013-3-9,76.1,62.4,50.0,54.0,48.8,40.6,94,65,29,30.26,30.16,11,3,12,0.00
2013-3-10,80.2,66.8,58.5,59.2,55.6,52.2,91,69,42,30.19,30.06,19,4,19,0.00
2013-3-11,75.2,68.4,61.5,64.0,60.5,56.7,87,76,64,30.12,29.90,17,6,17,0.00
2013-3-12,69.1,64.4,57.9,67.1,60.2,51.6,99,87,69,30.09,29.88,18,5,18,0.32
2013-3-13,71.2,62.8,57.9,53.6,45.6,25.5,83,56,20,30.24,30.08,9,3,9,0.31
2013-3-14,64.0,58.0,51.6,52.2,37.7,22.8,78,49,22,30.33,30.21,9,3,10,0.00
2013-3-15,70.9,57.5,43.7,50.9,41.0,24.6,96,60,20,30.34,30.21,14,2,14,0.00
2013-3-16,72.0,60.6,48.9,62.1,53.2,41.7,99,79,36,30.24,30.12,13,3,13,0.00
2013-3-17,76.5,64.3,53.6,62.4,58.3,52.7,99,82,55,30.17,30.02,14,2,14,0.00
2013-3-18,72.5,67.4,61.7,68.2,63.7,57.9,98,88,77,30.07,29.90,18,4,18,0.00
2013-3-19,80.1,69.4,62.6,70.5,64.7,61.7,99,86,62,30.04,29.93,15,3,15,0.00
2013-3-20,71.8,66.0,59.0,67.1,63.5,58.5,99,92,75,30.00,29.84,11,2,11,0.30
2013-3-21,69.4,59.6,48.6,58.6,43.7,21.6,99,62,17,30.04,29.92,10,2,10,1.09
2013-3-22,75.2,62.2,47.1,67.6,53.8,42.4,99,77,35,30.04,29.92,11,2,11,0.31
2013-3-23,74.8,69.8,65.8,72.5,68.8,65.5,99,97,90,30.00,29.82,16,5,16,0.04
2013-3-24,75.2,71.2,68.9,73.0,70.2,67.5,99,97,90,29.85,29.68,22,7,22,0.00
2013-3-25,69.1,62.7,56.1,67.6,50.2,35.6,96,65,35,30.11,29.78,13,4,13,0.00
2013-3-26,59.2,55.5,49.8,46.9,38.5,32.7,65,53,40,30.31,30.09,21,4,21,0.00
2013-3-27,59.4,50.7,43.5,41.5,36.2,29.1,84,58,39,30.39,30.27,12,3,12,0.00
2013-3-28,70.7,56.5,45.1,44.1,38.2,24.1,93,58,18,30.36,30.26,8,2,9,0.00
2013-3-29,77.0,61.3,48.6,52.3,44.3,27.1,95,61,18,30.38,30.24,11,2,11,0.00
2013-3-30,73.0,63.0,52.0,62.2,55.1,48.7,92,76,51,30.30,30.17,15,4,15,0.00
2013-3-31,77.0,67.1,56.3,64.8,59.6,54.9,95,79,54,30.20,30.03,17,4,17,0.00
2013-4-1,77.9,70.9,66.4,71.6,67.4,64.0,98,89,77,30.07,29.99,16,5,16,0.00
2013-4-2,78.4,69.3,62.6,68.4,64.0,61.0,99,85,58,30.12,30.03,11,2,11,1.24
2013-4-3,81.5,71.1,63.1,70.2,66.9,61.7,99,88,62,30.11,29.96,15,4,16,0.07
2013-4-4,74.7,70.1,67.3,70.3,68.0,64.6,99,93,74,30.08,29.88,15,5,15,0.25
2013-4-5,74.5,67.9,62.1,67.6,62.3,56.7,99,83,57,30.03,29.83,13,5,14,0.91
2013-4-6,74.3,64.9,55.9,61.0,56.5,51.8,91,75,52,30.14,30.03,13,3,15,0.58
2013-4-7,82.9,71.0,60.8,64.9,59.8,56.1,98,71,43,30.17,30.07,13,3,13,0.00
2013-4-8,87.6,74.4,65.8,66.6,61.8,56.1,89,67,35,30.15,30.06,15,4,15,0.00
2013-4-9,84.9,74.4,65.7,68.4,64.8,61.9,95,74,47,30.17,30.08,12,4,13,0.00
2013-4-10,87.3,76.1,65.5,69.1,65.7,62.2,97,72,45,30.13,29.98,14,4,14,0.00
2013-4-11,87.1,77.6,72.1,73.9,71.6,66.6,96,83,60,30.01,29.83,19,7,19,0.00
2013-4-12,77.2,75.4,71.6,75.0,73.5,69.1,98,94,88,29.95,29.80,24,7,24,0.00
2013-4-13,84.9,75.1,68.5,71.6,68.0,64.9,99,80,60,30.00,29.90,12,3,12,0.00
2013-4-14,82.4,75.1,68.9,75.9,69.9,61.3,94,84,72,30.04,29.88,19,6,19,0.00
2013-4-15,88.0,77.2,66.9,70.9,67.1,61.3,96,72,53,30.10,29.94,11,0,12,6.96
2013-4-16,93.6,80.5,69.1,74.3,69.8,65.5,98,72,44,30.16,30.04,17,3,17,0.00
2013-4-17,89.8,79.1,69.6,71.6,66.4,58.3,94,68,36,30.16,30.02,12,4,15,0.00
2013-4-18,88.3,78.4,70.3,73.9,69.6,66.2,90,76,52,30.07,29.96,16,5,17,0.00
2013-4-19,85.1,79.0,73.9,75.9,73.9,72.0,95,85,68,30.04,29.95,20,7,20,0.00
2013-4-20,77.0,70.2,62.1,75.0,65.1,59.2,96,84,68,30.18,30.00,12,3,13,0.74
2013-4-21,84.0,71.0,61.0,70.0,65.1,59.2,97,83,58,30.17,30.04,10,3,14,0.40
2013-4-22,84.0,73.2,67.6,71.4,68.1,64.2,99,85,57,30.10,29.99,11,3,11,0.02
2013-4-23,86.2,74.3,66.4,68.5,65.3,60.6,94,75,46,30.13,30.03,16,3,16,0.00
2013-4-24,84.6,73.8,64.0,67.5,64.2,60.8,95,74,46,30.17,30.09,15,4,15,0.00
2013-4-25,84.4,74.7,65.1,71.4,67.2,64.4,99,79,57,30.24,30.13,13,3,13,0.00
2013-4-26,84.9,75.9,66.4,71.1,67.3,64.6,95,76,57,30.27,30.17,14,3,14,0.00
2013-4-27,88.0,77.7,69.8,72.1,67.7,62.1,95,72,42,30.25,30.10,14,3,14,0.00
2013-4-28,87.1,77.1,69.8,70.0,66.3,61.7,87,70,44,30.15,29.99,14,4,15,0.00
2013-4-29,82.8,76.4,69.1,73.0,69.1,63.3,91,78,62,30.04,29.92,15,5,16,1.41
2013-4-30,88.0,77.9,69.3,73.4,70.5,65.3,99,80,49,30.03,29.92,11,4,12,2.74
2013-5-1,74.7,71.4,67.3,73.9,69.9,66.9,99,95,89,30.03,29.93,14,3,14,1.29
2013-5-2,81.5,72.7,66.7,72.3,69.1,66.4,99,89,70,30.00,29.84,9,3,11,3.85
2013-5-3,82.2,74.8,68.9,74.5,69.6,66.0,99,85,65,29.86,29.74,13,3,13,7.37
2013-5-4,81.5,73.1,66.0,72.1,68.1,64.9,99,85,65,29.87,29.71,18,4,18,1.07
2013-5-5,77.2,70.4,64.0,67.3,57.4,49.1,97,66,40,29.98,29.84,13,4,13,1.23
2013-5-6,75.0,69.8,63.0,65.3,58.3,54.5,86,68,51,30.05,29.93,16,4,21,7.59
2013-5-7,76.8,69.5,61.7,63.0,58.9,55.0,83,70,54,30.09,30.00,17,5,17,0.00
2013-5-8,78.6,70.9,62.2,64.6,61.6,58.3,90,74,54,30.18,30.06,12,3,12,0.00
2013-5-9,84.6,72.8,63.0,70.3,64.8,61.3,98,78,51,30.18,30.11,13,2,13,12.54
2013-5-10,86.0,76.5,66.6,73.9,68.2,62.1,99,78,47,30.18,30.02,12,3,14,11.52
2013-5-11,84.4,77.8,73.6,77.5,74.2,69.3,98,89,77,30.09,30.02,15,4,15,0.00
2013-5-12,84.6,77.4,71.6,75.7,71.5,67.8,99,83,62,30.09,29.97,13,3,13,15.71
2013-5-13,84.6,74.6,68.4,72.1,60.6,49.1,95,65,35,30.19,30.04,11,2,11,0.00
2013-5-14,84.4,73.0,61.5,61.0,48.8,36.7,73,45,21,30.25,30.14,9,3,9,0.00
2013-5-15,87.8,74.7,62.6,65.7,60.1,53.4,92,63,32,30.24,30.10,15,2,15,0.00
2013-5-16,84.0,75.8,68.0,68.4,65.0,61.3,87,70,49,30.16,30.02,13,4,13,0.00
2013-5-17,84.4,76.8,70.0,71.1,67.6,64.8,89,74,56,30.12,30.05,12,4,14,0.00
2013-5-18,86.7,78.5,71.6,75.2,70.7,66.4,96,78,52,30.14,30.04,13,3,13,0.00
2013-5-19,88.3,79.1,70.3,76.6,69.1,64.8,98,74,47,30.12,30.01,11,2,11,29.47
2013-5-20,89.2,79.8,73.4,75.4,70.7,63.0,89,75,50,30.10,29.99,12,3,13,0.02
2013-5-21,87.6,77.8,71.4,73.9,70.7,66.6,97,80,53,30.05,29.94,15,3,15,29.60
2013-5-22,87.3,78.4,72.1,74.5,71.5,69.1,93,80,56,30.00,29.91,13,3,13,2.03
2013-5-23,87.4,79.4,71.8,76.8,72.5,70.0,99,81,60,30.04,29.95,15,3,15,8.93
2013-5-24,91.0,81.4,72.7,76.5,71.7,64.2,97,75,43,30.12,30.01,9,2,10,10.55
2013-5-25,92.8,82.8,73.8,72.7,65.5,58.1,84,59,34,30.19,30.09,16,4,16,0.00
2013-5-26,89.4,79.0,68.4,64.9,58.3,45.7,85,53,23,30.25,30.13,12,3,14,0.00
2013-5-27,91.4,80.0,68.4,69.1,63.9,59.7,90,61,36,30.21,30.06,17,4,17,0.00
2013-5-28,93.2,80.1,72.3,74.3,71.1,66.0,92,76,45,30.17,30.04,18,6,18,0.00
2013-5-29,90.3,80.3,73.9,74.8,71.6,67.3,95,76,48,30.12,30.03,20,6,21,0.00
2013-5-30,90.9,81.4,75.6,74.8,72.0,68.2,94,75,51,30.11,30.01,26,7,26,0.00
2013-5-31,89.1,80.0,74.8,76.8,72.5,70.3,91,78,57,30.11,30.02,15,6,17,0.14
2013-6-1,89.6,79.5,74.1,77.7,74.4,72.3,99,85,60,30.09,29.97,15,4,15,1.74
2013-6-2,87.6,80.1,73.4,78.6,75.4,73.0,99,86,66,30.03,29.92,13,4,13,23.23
2013-6-3,86.0,80.6,78.3,77.7,75.5,73.8,93,85,70,30.03,29.93,15,6,16,9.90
2013-6-4,87.1,81.0,77.4,76.8,74.2,70.7,93,81,64,30.04,29.96,16,5,16,0.00
2013-6-5,85.6,78.5,73.8,75.4,74.0,71.2,98,87,65,30.04,29.91,21,4,21,0.61
2013-6-6,81.5,77.0,73.9,77.0,74.6,72.1,99,92,78,29.92,29.68,30,12,30,0.61
2013-6-7,84.7,80.3,76.8,76.8,74.8,72.5,91,84,72,30.00,29.81,15,6,15,0.02
2013-6-8,86.9,79.7,72.9,79.2,75.4,72.0,99,87,75,30.13,29.99,17,5,17,0.04
2013-6-9,90.1,80.4,73.2,78.6,74.4,69.4,99,84,57,30.12,30.03,12,3,16,0.00
2013-6-10,88.7,82.4,77.0,78.4,75.8,73.0,95,81,63,30.12,30.03,11,4,12,3.07
2013-6-11,91.9,82.3,76.8,78.6,75.9,72.0,96,82,57,30.12,30.04,10,2,10,8.88
2013-6-12,91.9,82.9,62.8,79.2,75.1,61.9,98,79,56,30.12,29.99,120,2,120,0.11
2013-6-13,90.0,82.9,76.5,79.0,75.3,63.5,97,79,59,30.08,29.84,13,3,13,1.12
2013-6-14,87.6,83.0,79.9,76.6,75.1,73.0,85,77,65,30.00,29.91,15,6,15,3.25
2013-6-15,88.9,83.5,80.2,78.4,76.8,74.3,89,81,68,30.09,29.95,11,4,11,4.12
2013-6-16,89.6,84.0,78.6,79.9,77.4,75.7,94,81,69,30.11,30.04,11,4,12,1.13
2013-6-17,90.5,84.4,78.4,80.2,76.2,73.4,93,77,59,30.11,30.01,12,3,12,0.00
2013-6-18,89.6,83.8,77.4,78.4,76.4,74.8,94,79,64,30.09,30.00,12,-2,13,0.00
2013-6-19,91.8,85.2,79.5,79.0,76.6,73.4,93,76,56,30.08,30.00,13,3,13,0.00
2013-6-20,91.9,83.9,78.4,80.1,74.8,70.5,93,76,52,30.13,30.04,13,2,15,0.01
2013-6-21,90.0,81.5,75.7,76.8,73.8,70.5,94,79,57,30.15,30.06,11,2,11,0.00
2013-6-22,90.7,82.0,74.5,77.2,72.4,67.8,97,75,49,30.15,30.06,12,3,15,8.17
2013-6-23,91.9,83.2,75.0,77.9,74.4,70.3,94,77,52,30.16,30.08,12,4,15,0.02
2013-6-24,84.0,77.9,58.8,76.1,74.6,56.5,95,90,76,30.19,30.11,4,1,5,4.32
2013-6-25,93.7,83.2,75.4,78.4,74.6,66.6,97,77,47,30.19,30.05,15,2,15,13.75
2013-6-26,90.0,81.8,75.9,79.0,75.7,72.3,99,83,61,30.11,30.04,14,3,17,5.44
2013-6-27,90.3,82.9,75.2,80.2,75.7,72.5,97,80,63,30.09,29.97,11,4,13,1.52
2013-6-28,90.0,84.9,81.9,78.3,76.2,74.5,83,76,64,30.01,29.88,15,6,15,0.00
2013-6-29,84.6,81.9,76.8,77.4,75.4,72.1,93,81,75,29.92,29.83,17,6,19,9.59
2013-6-30,88.9,83.8,76.8,79.7,76.4,73.2,95,79,63,29.92,29.83,18,8,19,10.44
2013-7-1,81.7,76.8,72.7,77.9,75.0,71.8,99,94,83,30.02,29.87,24,6,24,0.05
2013-7-2,88.2,79.4,73.4,79.2,74.9,71.6,99,87,66,30.12,29.88,33,5,33,0.05
2013-7-3,90.9,78.1,72.0,77.5,74.9,69.4,99,91,61,30.15,29.99,17,4,23,0.01
2013-7-4,89.8,78.6,73.2,77.9,74.9,70.3,99,89,63,30.19,30.08,17,4,21,0.01
2013-7-5,89.8,77.8,72.9,78.3,74.9,72.0,99,92,62,30.18,30.09,22,3,22,0.02
2013-7-6,93.4,81.6,74.5,78.6,75.7,72.0,99,84,51,30.15,30.05,15,4,15,0.00
2013-7-7,94.1,83.0,76.3,78.3,75.0,71.2,97,79,49,30.17,30.05,13,3,14,0.01
2013-7-8,93.7,82.0,75.4,79.3,75.7,72.3,99,83,51,30.20,30.09,11,2,11,0.18
2013-7-9,94.5,82.6,75.0,78.1,74.9,69.8,97,80,47,30.21,30.07,11,2,11,0.14
2013-7-10,92.1,81.3,72.3,78.1,74.5,62.8,98,82,56,30.13,29.99,18,2,18,0.05
2013-7-11,87.4,80.6,74.8,79.7,75.9,73.9,99,87,66,30.07,29.96,11,2,11,0.09
2013-7-12,89.1,82.9,77.4,79.5,75.5,67.5,95,79,60,30.05,29.92,12,3,12,0.00
2013-7-13,87.8,80.2,75.2,78.6,74.9,71.4,93,84,67,30.01,29.94,12,2,12,0.00
2013-7-14,89.1,80.0,74.8,79.5,75.4,73.2,99,87,64,30.12,29.98,11,3,11,0.00
2013-7-15,91.8,81.0,75.0,75.4,73.7,68.0,96,80,51,30.19,30.04,11,3,11,0.02
2013-7-16,91.2,80.0,75.6,76.3,73.7,69.6,95,82,51,30.19,30.10,22,4,23,0.01
2013-7-17,92.1,80.1,70.9,77.5,74.1,68.2,98,84,53,30.19,30.09,15,4,15,0.00
2013-7-18,71.6,71.6,71.6,65.5,65.5,65.5,81,81,81,30.09,30.09,4,4,0,0.00
2013-7-19,80.8,80.8,80.8,70.5,70.5,70.5,71,71,71,30.02,30.02,8,8,0,0.00
2013-7-21,73.9,73.9,73.9,69.4,69.4,69.4,86,86,86,30.01,30.01,2,2,0,0.00
2013-7-22,68.5,68.5,68.5,67.3,67.3,67.3,96,96,96,29.95,29.95,2,2,0,0.00
2013-7-23,81.3,81.3,81.3,68.4,68.4,68.4,65,65,65,29.77,29.77,5,5,0,0.00
2013-7-25,72.7,72.7,72.7,67.3,67.3,67.3,83,83,83,29.80,29.80,4,4,0,0.00
2013-7-29,72.9,70.3,68.4,63.7,63.3,63.0,83,79,73,30.17,30.14,2,1,0,0.01
2013-7-30,81.3,78.5,76.6,77.9,77.2,74.8,98,96,82,30.19,30.14,4,0,4,0.01
2013-7-31,93.6,83.3,76.5,82.2,76.2,71.2,99,81,52,30.18,30.04,10,2,10,0.00
2013-8-1,90.1,83.0,77.7,79.0,75.8,73.2,92,80,61,30.10,29.98,10,2,11,0.00
2013-8-2,91.6,83.5,76.3,78.6,75.9,73.0,95,79,60,30.09,29.99,13,3,13,0.00
2013-8-3,92.1,85.8,79.2,78.8,76.3,74.1,88,74,59,30.15,30.04,12,4,13,0.00
2013-8-4,92.8,86.5,82.9,79.3,77.7,75.7,84,75,60,30.14,30.04,14,4,15,0.00
2013-8-5,93.2,86.9,82.0,79.7,78.1,75.7,87,76,60,30.07,29.97,15,4,15,0.00
2013-8-6,91.6,82.9,78.6,81.7,78.0,75.0,95,85,66,30.04,29.93,12,-9,12,0.00
2013-8-7,94.1,82.0,74.7,81.0,76.8,72.0,98,86,53,30.07,29.93,21,2,21,0.00
2013-8-8,93.9,82.2,72.3,79.3,76.5,71.4,99,85,54,30.07,29.96,15,4,15,0.00
2013-8-9,93.6,80.1,73.0,80.2,75.7,72.0,99,88,53,30.11,29.99,12,2,12,0.00
2013-8-10,93.7,82.8,73.9,79.2,76.2,73.6,99,82,57,30.17,30.07,13,3,13,0.00
2013-8-11,94.8,85.4,77.9,78.6,76.7,74.8,94,76,56,30.19,30.08,11,3,11,0.00
2013-8-12,93.6,85.2,77.5,81.5,78.1,75.7,96,80,57,30.18,30.04,11,-2,11,0.00
2013-8-13,91.9,84.4,77.2,80.6,77.0,73.0,96,80,58,30.10,29.98,12,3,12,0.00
2013-8-14,83.5,83.0,82.8,79.7,79.1,78.6,89,88,87,30.05,30.00,6,0,6,0.00
2013-8-16,75.0,56.6,32.0,74.7,56.4,32.0,99,57,99,30.02,30.02,0,-428,0,0.00
2013-8-17,87.3,87.3,87.3,75.0,75.0,75.0,67,67,67,29.94,29.94,4,4,0,0.00
2013-8-18,77.0,77.0,77.0,73.2,73.2,73.2,88,88,88,30.00,30.00,0,0,0,0.00
2013-8-20,75.9,75.9,75.9,74.1,74.1,74.1,94,94,94,30.12,30.12,4,4,0,0.00
2013-8-21,77.4,77.4,77.4,72.5,72.5,72.5,85,85,85,30.17,30.17,4,4,0,0.00
2013-9-5,75.0,74.9,74.8,74.5,74.2,73.9,98,97,97,30.06,30.03,2,1,0,0.00
2013-9-7,83.7,79.3,76.6,75.7,71.7,69.3,78,78,77,30.04,30.02,3,2,0,0.00
2013-9-8,67.1,67.1,67.1,46.2,46.2,46.2,47,47,47,30.17,30.17,2,2,0,0.00
2013-9-9,83.1,83.1,83.1,54.9,54.9,54.9,38,38,38,30.22,30.22,4,4,0,0.00
2013-9-11,72.0,72.0,72.0,67.8,67.8,67.8,87,87,87,30.09,30.09,0,0,0,0.00
2013-9-12,81.3,81.3,81.3,73.4,73.4,73.4,77,77,77,30.14,30.14,4,4,0,0.00
2013-9-13,81.9,81.9,81.9,67.6,67.6,67.6,62,62,62,30.04,30.04,1,1,0,0.00
2013-9-14,77.0,77.0,77.0,68.9,68.9,68.9,76,76,76,30.09,30.09,1,1,0,0.00
2013-9-15,74.8,74.8,74.8,73.6,73.6,73.6,96,96,96,30.03,30.03,2,2,0,0.00
2013-9-17,78.8,78.8,78.8,71.1,71.1,71.1,77,77,77,29.95,29.95,0,0,0,0.00
2013-9-19,89.2,89.2,89.2,60.3,60.3,60.3,38,38,38,30.11,30.11,2,2,0,0.00
2013-9-21,68.9,68.9,68.9,65.8,65.8,65.8,90,90,90,30.18,30.18,1,1,0,0.00
2013-9-22,86.9,86.9,86.9,72.3,72.3,72.3,62,62,62,30.05,30.05,10,10,0,0.00
2013-9-24,84.0,79.4,75.9,77.9,75.6,73.8,93,88,82,30.08,30.06,5,4,0,0.00
2013-9-26,74.5,74.5,74.5,73.0,73.0,73.0,95,95,95,30.03,30.03,4,4,0,0.00
2013-9-27,85.8,85.8,85.8,77.4,77.4,77.4,76,76,76,29.97,29.97,11,11,0,0.00
2013-9-29,77.4,77.4,77.4,74.8,74.8,74.8,92,92,92,29.97,29.97,3,3,0,0.00
2013-10-1,77.0,77.0,77.0,73.2,73.2,73.2,88,88,88,29.93,29.93,2,2,0,0.00
2013-10-2,77.5,77.5,77.5,73.8,73.8,73.8,88,88,88,29.82,29.82,3,3,0,0.00
2013-10-4,73.2,73.2,73.2,72.3,72.3,72.3,97,97,97,30.11,30.11,2,2,0,0.00
2013-10-5,83.5,83.5,83.5,78.1,78.1,78.1,84,84,84,30.11,30.11,3,3,0,0.00
2013-10-8,81.0,81.0,81.0,75.4,75.4,75.4,83,83,83,30.06,30.06,0,0,0,0.00
2013-10-9,85.3,85.3,85.3,75.6,75.6,75.6,73,73,73,29.96,29.96,7,7,0,0.00
2013-10-10,88.0,88.0,88.0,77.4,77.4,77.4,71,71,71,30.01,30.01,8,8,0,0.00
2013-10-12,79.3,79.3,79.3,76.8,76.8,76.8,92,92,92,30.06,30.06,2,2,0,0.00
2013-10-14,82.9,82.9,82.9,77.2,77.2,77.2,83,83,83,30.04,30.04,2,2,0,0.00
2013-10-15,78.8,78.8,78.8,76.3,76.3,76.3,92,92,92,30.06,30.06,0,0,0,0.00
2013-10-16,85.8,85.8,85.8,73.9,73.9,73.9,68,68,68,30.11,30.11,3,3,0,0.00
2013-10-18,77.7,77.7,77.7,75.9,75.9,75.9,94,94,94,30.12,30.12,1,1,0,0.00
2013-10-21,76.5,76.5,76.5,66.0,66.0,66.0,70,70,70,30.11,30.11,2,2,0,0.00
2013-10-23,70.9,70.9,70.9,69.4,69.4,69.4,95,95,95,30.02,30.02,4,4,0,0.00
2013-10-24,80.1,80.1,80.1,74.8,74.8,74.8,84,84,84,30.09,30.09,0,0,0,0.00
2013-10-26,82.8,82.8,82.8,77.0,77.0,77.0,83,83,83,30.02,30.02,2,2,0,0.00
2013-10-27,85.3,85.3,85.3,76.8,76.8,76.8,76,76,76,30.10,30.10,5,5,0,0.00
2013-10-29,82.2,82.2,82.2,76.8,76.8,76.8,84,84,84,30.04,30.04,0,0,0,0.00
2013-10-30,82.0,82.0,82.0,77.7,77.7,77.7,87,87,87,29.96,29.96,0,0,0,0.00
2013-11-1,77.5,77.5,77.5,77.0,77.0,77.0,98,98,98,29.96,29.96,3,3,0,0.00
2013-11-4,81.1,81.1,81.1,75.2,75.2,75.2,82,82,82,30.14,30.14,2,2,0,0.00
2013-11-5,90.3,90.3,90.3,78.8,78.8,78.8,69,69,69,30.08,30.08,9,9,0,0.00
2013-11-6,82.9,82.9,82.9,79.0,79.0,79.0,88,88,88,30.04,30.04,0,0,0,0.00